createdAt,value
2022-11-06T00:01:19.866Z,5.57
2022-11-06T00:06:26.296Z,5.38
2022-11-06T00:11:32.434Z,5.76
2022-11-06T00:16:38.636Z,5.87
2022-11-06T00:21:44.929Z,5.61
2022-11-06T00:26:54.347Z,5.58
2022-11-06T00:31:56.841Z,5.25
2022-11-06T00:37:03.358Z,5.53
2022-11-06T00:42:09.680Z,5.26
2022-11-06T00:47:16.126Z,5.39
2022-11-06T00:52:22.635Z,5.15
2022-11-06T00:57:28.844Z,5.43
2022-11-06T01:02:35.164Z,5.65
2022-11-06T01:07:41.213Z,5.50
2022-11-06T01:12:47.337Z,5.13
2022-11-06T01:17:53.632Z,5.73
2022-11-06T01:22:59.792Z,5.72
2022-11-06T01:28:05.936Z,5.56
2022-11-06T01:33:12.067Z,5.71
2022-11-06T01:38:18.261Z,5.65
2022-11-06T01:43:24.427Z,6.21
2022-11-06T01:48:30.590Z,5.72
2022-11-06T01:53:36.693Z,5.19
2022-11-06T01:58:43.756Z,5.18
2022-11-06T02:03:49.836Z,5.19
2022-11-06T02:08:55.979Z,5.02
2022-11-06T02:14:02.137Z,5.35
2022-11-06T02:19:08.347Z,5.18
2022-11-06T02:24:14.496Z,5.55
2022-11-06T02:29:20.630Z,5.33
2022-11-06T02:34:26.761Z,5.65
2022-11-06T02:39:33.291Z,5.11
2022-11-06T02:44:39.792Z,5.04
2022-11-06T02:49:46.263Z,4.94
2022-11-06T02:54:52.332Z,4.63
2022-11-06T02:59:58.455Z,4.98
2022-11-06T03:05:04.881Z,4.59
2022-11-06T03:10:11.162Z,4.50
2022-11-06T03:15:17.220Z,4.58
2022-11-06T03:20:23.460Z,4.39
2022-11-06T03:25:29.583Z,4.84
2022-11-06T03:30:36.092Z,4.79
2022-11-06T03:35:42.497Z,4.49
2022-11-06T03:40:48.846Z,4.78
2022-11-06T03:45:54.961Z,4.81
2022-11-06T03:51:01.200Z,4.33
2022-11-06T03:56:07.319Z,4.23
2022-11-06T04:01:13.496Z,4.66
2022-11-06T04:06:19.549Z,4.74
2022-11-06T04:11:25.771Z,4.98
2022-11-06T04:16:32.927Z,5.08
2022-11-06T04:21:39.452Z,5.01
2022-11-06T04:26:45.491Z,5.10
2022-11-06T04:31:51.676Z,5.17
2022-11-06T04:36:57.823Z,4.73
2022-11-06T04:42:04.326Z,5.38
2022-11-06T04:47:11.313Z,4.77
2022-11-06T04:52:17.505Z,4.99
2022-11-06T04:57:23.613Z,5.07
2022-11-06T05:02:30.294Z,4.57
2022-11-06T05:07:36.695Z,4.72
2022-11-06T05:12:42.868Z,5.06
2022-11-06T05:17:48.942Z,4.88
2022-11-06T05:22:55.161Z,4.92
2022-11-06T05:28:01.318Z,5.02
2022-11-06T05:33:07.576Z,5.13
2022-11-06T05:38:14.581Z,5.16
2022-11-06T05:43:19.923Z,4.99
2022-11-06T05:48:26.073Z,5.08
2022-11-06T05:53:32.309Z,5.38
2022-11-06T05:58:38.457Z,4.84
2022-11-06T06:03:44.625Z,4.76
2022-11-06T06:08:51.088Z,4.62
2022-11-06T06:13:57.406Z,4.71
2022-11-06T06:19:03.440Z,4.46
2022-11-06T06:24:09.575Z,4.59
2022-11-06T06:29:16.047Z,4.58
2022-11-06T06:34:22.213Z,4.31
2022-11-06T06:39:28.377Z,4.18
2022-11-06T06:44:34.525Z,4.42
2022-11-06T06:49:40.551Z,4.46
2022-11-06T06:54:46.757Z,3.94
2022-11-06T06:59:52.798Z,4.46
2022-11-06T07:04:59.275Z,4.56
2022-11-06T07:10:05.328Z,4.07
2022-11-06T07:15:11.901Z,4.02
2022-11-06T07:20:17.943Z,4.05
2022-11-06T07:25:24.144Z,4.23
2022-11-06T07:30:30.190Z,4.84
2022-11-06T07:35:36.509Z,4.07
2022-11-06T07:40:42.653Z,3.91
2022-11-06T07:45:48.854Z,3.98
2022-11-06T07:50:54.907Z,3.99
2022-11-06T07:56:01.064Z,3.94
2022-11-06T08:01:07.170Z,3.58
2022-11-06T08:06:13.294Z,3.88
2022-11-06T08:11:19.358Z,3.55
2022-11-06T08:16:25.548Z,3.36
2022-11-06T08:21:31.933Z,3.36
2022-11-06T08:26:38.115Z,3.19
2022-11-06T08:31:44.574Z,3.31
2022-11-06T08:36:50.809Z,3.00
2022-11-06T08:41:56.844Z,3.18
2022-11-06T08:47:03.140Z,3.26
2022-11-06T08:52:09.283Z,3.13
2022-11-06T08:57:15.497Z,3.29
2022-11-06T09:02:21.709Z,3.13
2022-11-06T09:07:27.812Z,2.99
2022-11-06T09:12:33.946Z,2.95
2022-11-06T09:17:40.145Z,2.94
2022-11-06T09:22:46.982Z,3.03
2022-11-06T09:27:58.514Z,2.89
2022-11-06T09:32:58.784Z,2.95
2022-11-06T09:38:05.086Z,2.88
2022-11-06T09:43:12.051Z,2.89
2022-11-06T09:48:17.507Z,2.99
2022-11-06T09:53:23.676Z,3.02
2022-11-06T09:58:29.886Z,2.68
2022-11-06T10:03:36.064Z,2.47
2022-11-06T10:08:42.434Z,2.69
2022-11-06T10:13:48.533Z,2.75
2022-11-06T10:18:54.913Z,2.78
2022-11-06T10:24:01.124Z,2.77
2022-11-06T10:29:07.324Z,2.74
2022-11-06T10:34:13.393Z,2.35
2022-11-06T10:39:19.574Z,2.58
2022-11-06T10:44:25.711Z,2.61
2022-11-06T10:49:31.955Z,2.58
2022-11-06T10:54:37.988Z,2.53
2022-11-06T10:59:44.128Z,2.75
2022-11-06T11:04:53.999Z,2.52
2022-11-06T11:09:55.937Z,2.58
2022-11-06T11:15:02.369Z,2.45
2022-11-06T11:20:08.491Z,2.61
2022-11-06T11:25:14.532Z,2.34
2022-11-06T11:30:20.972Z,2.47
2022-11-06T11:35:27.092Z,2.88
2022-11-06T11:40:33.306Z,2.10
2022-11-06T11:45:39.461Z,2.30
2022-11-06T11:50:46.396Z,2.16
2022-11-06T11:55:52.554Z,2.06
2022-11-06T12:00:58.677Z,1.97
2022-11-06T12:06:04.800Z,2.12
2022-11-06T12:11:11.455Z,2.09
2022-11-06T12:16:17.504Z,1.68
2022-11-06T12:21:24.027Z,2.04
2022-11-06T12:26:30.470Z,2.00
2022-11-06T12:31:37.113Z,2.11
2022-11-06T12:36:43.242Z,2.19
2022-11-06T12:41:49.480Z,1.97
2022-11-06T12:46:55.628Z,2.02
2022-11-06T12:52:01.925Z,2.29
2022-11-06T12:57:07.969Z,2.19
2022-11-06T13:02:14.507Z,2.32
2022-11-06T13:07:20.462Z,2.31
2022-11-06T13:12:26.659Z,1.89
2022-11-06T13:17:32.763Z,1.92
2022-11-06T13:22:38.982Z,2.20
2022-11-06T13:27:45.136Z,2.01
2022-11-06T13:32:53.928Z,2.02
2022-11-06T13:37:57.149Z,1.88
2022-11-06T13:43:03.486Z,2.04
2022-11-06T13:48:09.737Z,1.71
2022-11-06T13:53:15.885Z,1.87
2022-11-06T13:58:21.978Z,1.75
2022-11-06T14:03:28.156Z,1.78
2022-11-06T14:08:34.199Z,1.86
2022-11-06T14:13:40.407Z,1.58
2022-11-06T14:18:46.561Z,1.82
2022-11-06T14:23:53.473Z,1.75
2022-11-06T14:28:59.643Z,1.79
2022-11-06T14:34:05.874Z,2.06
2022-11-06T14:39:12.106Z,1.96
2022-11-06T14:44:18.307Z,2.07
2022-11-06T14:49:24.519Z,1.83
2022-11-06T14:54:30.783Z,2.00
2022-11-06T14:59:36.921Z,2.19
2022-11-06T15:04:43.235Z,1.96
2022-11-06T15:09:49.294Z,2.43
2022-11-06T15:14:55.507Z,2.26
2022-11-06T15:20:01.571Z,2.47
2022-11-06T15:25:07.750Z,2.21
2022-11-06T15:30:13.810Z,2.66
2022-11-06T15:35:20.333Z,2.10
2022-11-06T15:40:26.457Z,2.33
2022-11-06T15:45:32.683Z,2.60
2022-11-06T15:50:38.730Z,2.55
2022-11-06T15:55:44.950Z,2.78
2022-11-06T16:00:51.106Z,2.47
2022-11-06T16:05:57.321Z,2.87
2022-11-06T16:11:03.476Z,2.73
2022-11-06T16:16:09.664Z,2.80
2022-11-06T16:21:16.111Z,3.00
2022-11-06T16:26:22.392Z,3.11
2022-11-06T16:31:28.814Z,3.36
2022-11-06T16:36:34.981Z,3.74
2022-11-06T16:41:41.096Z,3.97
2022-11-06T16:46:47.305Z,3.62
2022-11-06T16:51:53.419Z,4.22
2022-11-06T16:56:59.556Z,4.09
2022-11-06T17:02:05.689Z,3.71
2022-11-06T17:07:12.282Z,3.89
2022-11-06T17:12:19.640Z,3.83
2022-11-06T17:17:25.828Z,3.19
2022-11-06T17:22:31.927Z,3.68
2022-11-06T17:27:38.180Z,4.36
2022-11-06T17:32:44.391Z,3.78
2022-11-06T17:37:50.637Z,3.83
2022-11-06T17:42:57.085Z,3.76
2022-11-06T17:48:03.995Z,4.05
2022-11-06T17:53:10.051Z,4.08
2022-11-06T17:58:16.814Z,3.95
2022-11-06T18:03:22.214Z,4.04
2022-11-06T18:08:28.211Z,4.02
2022-11-06T18:13:34.393Z,4.47
2022-11-06T18:18:40.602Z,4.03
2022-11-06T18:23:46.767Z,4.12
2022-11-06T18:28:54.006Z,3.70
2022-11-06T18:34:00.170Z,3.97
2022-11-06T18:39:06.471Z,4.25
2022-11-06T18:44:12.614Z,4.30
2022-11-06T18:49:21.235Z,4.01
2022-11-06T18:54:27.388Z,4.24
2022-11-06T18:59:33.713Z,3.83
2022-11-06T19:04:39.911Z,4.10
2022-11-06T19:09:46.119Z,5.03
2022-11-06T19:14:52.220Z,3.62
2022-11-06T19:19:58.481Z,3.34
2022-11-06T19:25:04.637Z,3.28
2022-11-06T19:30:10.857Z,3.10
2022-11-06T19:35:16.983Z,3.19
2022-11-06T19:40:23.328Z,3.03
2022-11-06T19:45:29.848Z,2.71
2022-11-06T19:50:58.670Z,2.76
2022-11-06T19:55:42.167Z,2.58
2022-11-06T20:00:48.321Z,2.95
2022-11-06T20:05:54.804Z,2.53
2022-11-06T20:11:01.917Z,2.49
2022-11-06T20:16:08.043Z,2.38
2022-11-06T20:21:14.618Z,2.34
2022-11-06T20:26:20.778Z,2.46
2022-11-06T20:31:26.989Z,2.39
2022-11-06T20:36:33.123Z,2.42
2022-11-06T20:41:39.398Z,2.87
2022-11-06T20:46:47.807Z,2.38
2022-11-06T20:52:12.790Z,2.57
2022-11-06T20:56:57.435Z,2.76
2022-11-06T21:02:03.718Z,2.82
2022-11-06T21:07:10.037Z,2.82
2022-11-06T21:12:16.282Z,2.92
2022-11-06T21:17:22.429Z,2.87
2022-11-06T21:22:28.577Z,2.91
2022-11-06T21:27:34.695Z,2.68
2022-11-06T21:32:41.250Z,3.03
2022-11-06T21:37:47.390Z,3.12
2022-11-06T21:42:53.634Z,3.04
2022-11-06T21:47:59.690Z,3.51
2022-11-06T21:53:05.848Z,3.17
2022-11-06T21:58:15.187Z,3.03
2022-11-06T22:03:21.288Z,3.47
2022-11-06T22:08:30.503Z,3.25
2022-11-06T22:13:54.491Z,3.53
2022-11-06T22:19:00.705Z,3.36
2022-11-06T22:24:07.010Z,3.77
2022-11-06T22:29:13.187Z,3.98
2022-11-06T22:34:19.361Z,3.77
2022-11-06T22:39:25.533Z,3.97
2022-11-06T22:44:31.935Z,3.89
2022-11-06T22:49:38.222Z,4.83
2022-11-06T22:54:44.811Z,4.54
2022-11-06T22:59:51.199Z,4.50
2022-11-06T23:04:57.465Z,4.23
2022-11-06T23:10:03.603Z,4.72
2022-11-06T23:15:09.904Z,5.24
2022-11-06T23:20:16.305Z,4.59
2022-11-06T23:25:22.531Z,4.93
2022-11-06T23:30:28.663Z,5.02
2022-11-06T23:35:34.860Z,4.98
2022-11-06T23:40:40.942Z,5.07
2022-11-06T23:45:47.166Z,5.05
2022-11-06T23:50:53.242Z,5.28
2022-11-06T23:55:59.582Z,4.90
